createdAt,value
2023-03-31T00:01:11.794Z,10.30
2023-03-31T00:03:44.562Z,10.30
2023-03-31T00:06:18.981Z,10.30
2023-03-31T00:08:52.494Z,10.30
2023-03-31T00:11:24.528Z,10.30
2023-03-31T00:13:52.697Z,10.30
2023-03-31T00:16:22.324Z,10.30
2023-03-31T00:18:51.829Z,10.30
2023-03-31T00:21:30.664Z,10.30
2023-03-31T00:24:00.193Z,10.30
2023-03-31T00:26:28.772Z,10.30
2023-03-31T00:28:57.218Z,10.30
2023-03-31T00:31:27.881Z,10.30
2023-03-31T00:33:56.721Z,10.20
2023-03-31T00:36:28.402Z,10.20
2023-03-31T00:38:59.605Z,10.20
2023-03-31T00:41:30.684Z,10.30
2023-03-31T00:44:09.296Z,10.30
2023-03-31T00:46:47.910Z,10.30
2023-03-31T00:49:22.332Z,10.40
2023-03-31T00:51:52.368Z,10.30
2023-03-31T00:54:23.410Z,10.30
2023-03-31T00:56:55.363Z,10.40
2023-03-31T00:59:29.658Z,10.40
2023-03-31T01:02:02.978Z,10.40
2023-03-31T01:04:36.309Z,10.40
2023-03-31T01:07:12.717Z,10.40
2023-03-31T01:09:42.195Z,10.40
2023-03-31T01:12:11.975Z,10.40
2023-03-31T01:14:40.258Z,10.30
2023-03-31T01:17:10.952Z,10.30
2023-03-31T01:19:58.712Z,10.40
2023-03-31T01:22:46.360Z,10.30
2023-03-31T01:25:58.056Z,10.30
2023-03-31T01:28:37.417Z,10.20
2023-03-31T01:31:35.140Z,10.20
2023-03-31T01:34:50.050Z,10.20
2023-03-31T01:37:59.756Z,10.20
2023-03-31T01:40:44.981Z,10.30
2023-03-31T01:43:19.384Z,10.20
2023-03-31T01:45:59.053Z,10.20
2023-03-31T01:48:39.328Z,10.20
2023-03-31T01:51:13.177Z,10.20
2023-03-31T01:53:50.254Z,10.20
2023-03-31T01:56:23.862Z,10.20
2023-03-31T01:58:55.724Z,10.30
2023-03-31T02:01:31.245Z,10.30
2023-03-31T02:04:04.440Z,10.40
2023-03-31T02:06:42.385Z,10.30
2023-03-31T02:09:15.546Z,10.40
2023-03-31T02:12:06.946Z,10.40
2023-03-31T02:14:39.316Z,10.40
2023-03-31T02:17:08.735Z,10.40
2023-03-31T02:19:41.297Z,10.40
2023-03-31T02:22:10.970Z,10.40
2023-03-31T02:24:41.429Z,10.40
2023-03-31T02:27:20.153Z,10.40
2023-03-31T02:29:48.880Z,10.40
2023-03-31T02:32:23.314Z,10.40
2023-03-31T02:34:51.592Z,10.40
2023-03-31T02:37:19.632Z,10.40
2023-03-31T02:39:51.158Z,10.40
2023-03-31T02:42:21.452Z,10.40
2023-03-31T02:44:49.992Z,10.40
2023-03-31T02:47:20.438Z,10.40
2023-03-31T02:49:52.950Z,10.30
2023-03-31T02:52:47.150Z,10.30
2023-03-31T02:55:47.975Z,10.30
2023-03-31T02:59:02.162Z,10.30
2023-03-31T03:01:45.322Z,10.30
2023-03-31T03:04:30.052Z,10.30
2023-03-31T03:07:05.717Z,10.30
2023-03-31T03:09:46.196Z,10.30
2023-03-31T03:12:20.808Z,10.30
2023-03-31T03:14:54.032Z,10.30
2023-03-31T03:17:25.968Z,10.40
2023-03-31T03:20:00.005Z,10.40
2023-03-31T03:22:28.741Z,10.40
2023-03-31T03:24:57.124Z,10.40
2023-03-31T03:27:25.121Z,10.40
2023-03-31T03:29:55.479Z,10.40
2023-03-31T03:32:23.610Z,10.40
2023-03-31T03:34:55.962Z,10.40
2023-03-31T03:37:24.247Z,10.40
2023-03-31T03:39:52.387Z,10.40
2023-03-31T03:42:20.633Z,10.30
2023-03-31T03:44:50.705Z,10.30
2023-03-31T03:47:21.607Z,10.30
2023-03-31T03:49:49.730Z,10.30
2023-03-31T03:52:18.459Z,10.20
2023-03-31T03:54:46.487Z,10.20
2023-03-31T03:59:44.155Z,10.20
2023-03-31T04:02:12.736Z,10.20
2023-03-31T04:04:42.258Z,10.10
2023-03-31T04:07:10.774Z,10.10
2023-03-31T04:09:38.808Z,10.10
2023-03-31T04:12:07.183Z,10.50
2023-03-31T04:14:35.494Z,10.10
2023-03-31T04:17:03.644Z,10.20
2023-03-31T04:19:32.499Z,10.20
2023-03-31T04:22:04.961Z,10.10
2023-03-31T04:24:33.690Z,10.20
2023-03-31T04:27:03.372Z,10.20
2023-03-31T04:29:33.719Z,10.20
2023-03-31T04:32:03.552Z,10.10
2023-03-31T04:34:35.990Z,10.20
2023-03-31T04:37:06.107Z,10.20
2023-03-31T04:39:34.368Z,10.20
2023-03-31T04:42:02.828Z,10.30
2023-03-31T04:44:35.156Z,10.30
2023-03-31T04:47:06.973Z,10.60
2023-03-31T04:49:36.050Z,10.30
2023-03-31T04:52:05.792Z,10.30
2023-03-31T04:57:02.031Z,10.30
2023-03-31T04:59:31.488Z,10.30
2023-03-31T05:04:28.537Z,10.30
2023-03-31T05:06:56.905Z,10.30
2023-03-31T05:09:26.612Z,10.30
2023-03-31T05:11:55.218Z,10.30
2023-03-31T05:14:23.631Z,10.30
2023-03-31T05:16:51.593Z,10.30
2023-03-31T05:19:20.036Z,10.30
2023-03-31T05:21:52.147Z,10.30
2023-03-31T05:24:20.200Z,10.30
2023-03-31T05:26:53.026Z,10.30
2023-03-31T05:29:21.409Z,10.30
2023-03-31T05:31:50.731Z,10.30
2023-03-31T05:34:19.368Z,10.30
2023-03-31T05:36:48.091Z,10.30
2023-03-31T05:39:19.677Z,10.30
2023-03-31T05:41:49.178Z,10.20
2023-03-31T05:44:17.257Z,10.30
2023-03-31T05:46:45.402Z,10.20
2023-03-31T05:49:15.943Z,10.20
2023-03-31T05:51:44.094Z,10.20
2023-03-31T05:54:12.307Z,10.20
2023-03-31T05:56:40.405Z,10.20
2023-03-31T05:59:10.123Z,10.10
2023-03-31T06:01:38.902Z,10.40
2023-03-31T06:04:07.194Z,10.20
2023-03-31T06:06:38.178Z,10.30
2023-03-31T06:09:11.294Z,10.20
2023-03-31T06:11:39.625Z,10.20
2023-03-31T06:14:09.528Z,10.20
2023-03-31T06:16:37.520Z,10.20
2023-03-31T06:19:06.183Z,10.30
2023-03-31T06:21:36.824Z,10.20
2023-03-31T06:24:04.872Z,10.20
2023-03-31T06:26:33.270Z,10.20
2023-03-31T06:29:02.781Z,10.30
2023-03-31T06:31:32.572Z,10.30
2023-03-31T06:34:01.132Z,10.30
2023-03-31T06:36:29.530Z,10.30
2023-03-31T06:38:58.028Z,10.40
2023-03-31T06:41:26.481Z,10.30
2023-03-31T06:43:54.442Z,10.30
2023-03-31T06:46:22.539Z,10.40
2023-03-31T06:48:54.299Z,10.40
2023-03-31T06:51:22.717Z,10.40
2023-03-31T06:53:50.942Z,10.50
2023-03-31T06:56:18.984Z,10.50
2023-03-31T06:58:47.255Z,10.50
2023-03-31T07:01:15.918Z,10.50
2023-03-31T07:03:43.994Z,10.50
2023-03-31T07:06:13.525Z,10.60
2023-03-31T07:08:41.463Z,10.60
2023-03-31T07:11:09.859Z,10.60
2023-03-31T07:13:38.171Z,10.60
2023-03-31T07:16:09.382Z,10.70
2023-03-31T07:18:41.363Z,10.70
2023-03-31T07:21:10.502Z,10.80
2023-03-31T07:23:40.232Z,10.80
2023-03-31T07:26:08.651Z,10.90
2023-03-31T07:28:36.732Z,11.10
2023-03-31T07:31:12.225Z,11.20
2023-03-31T07:33:40.201Z,11.30
2023-03-31T07:36:12.814Z,11.30
2023-03-31T07:38:45.053Z,11.20
2023-03-31T07:41:13.972Z,11.30
2023-03-31T07:43:42.107Z,11.40
2023-03-31T07:46:16.763Z,11.50
2023-03-31T07:48:47.262Z,11.60
2023-03-31T07:51:17.026Z,11.50
2023-03-31T07:53:46.329Z,11.60
2023-03-31T07:56:14.516Z,11.40
2023-03-31T07:58:42.732Z,11.40
2023-03-31T08:01:12.347Z,11.30
2023-03-31T08:03:40.721Z,11.30
2023-03-31T08:06:09.524Z,11.20
2023-03-31T08:08:38.711Z,11.30
2023-03-31T08:11:08.548Z,11.40
2023-03-31T08:13:38.330Z,11.60
2023-03-31T08:16:07.092Z,11.70
2023-03-31T08:18:36.905Z,11.80
2023-03-31T08:21:10.764Z,11.80
2023-03-31T08:23:38.860Z,12.00
2023-03-31T08:26:15.791Z,12.10
2023-03-31T08:28:48.642Z,12.40
2023-03-31T08:31:20.083Z,12.60
2023-03-31T08:33:49.084Z,12.90
2023-03-31T08:36:17.294Z,13.10
2023-03-31T08:38:48.169Z,13.40
2023-03-31T08:41:34.267Z,13.60
2023-03-31T08:44:11.245Z,14.00
2023-03-31T08:46:41.474Z,14.50
2023-03-31T08:49:15.431Z,14.50
2023-03-31T08:51:48.763Z,14.90
2023-03-31T08:54:21.925Z,15.10
2023-03-31T08:56:53.223Z,15.00
2023-03-31T08:59:28.027Z,14.90
2023-03-31T09:02:03.055Z,14.50
2023-03-31T09:04:57.987Z,14.30
2023-03-31T09:07:34.799Z,14.00
2023-03-31T09:10:12.470Z,13.60
2023-03-31T09:12:50.274Z,13.30
2023-03-31T09:15:27.277Z,12.90
2023-03-31T09:17:57.845Z,12.70
2023-03-31T09:20:32.458Z,12.60
2023-03-31T09:23:07.842Z,12.40
2023-03-31T09:25:39.791Z,12.20
2023-03-31T09:28:20.478Z,12.40
2023-03-31T09:30:50.756Z,12.20
2023-03-31T09:33:21.208Z,12.20
2023-03-31T09:35:52.202Z,12.10
2023-03-31T09:38:20.562Z,12.10
2023-03-31T09:40:49.271Z,12.10
2023-03-31T09:43:23.596Z,12.20
2023-03-31T09:46:05.765Z,12.40
2023-03-31T09:48:43.236Z,12.50
2023-03-31T09:51:19.760Z,12.70
2023-03-31T09:53:52.476Z,12.90
2023-03-31T09:56:36.071Z,13.10
2023-03-31T09:59:07.219Z,13.30
2023-03-31T10:01:37.972Z,13.50
2023-03-31T10:04:10.037Z,13.80
2023-03-31T10:06:42.944Z,14.10
2023-03-31T10:09:11.977Z,14.30
2023-03-31T10:11:41.139Z,14.40
2023-03-31T10:14:16.000Z,14.50
2023-03-31T10:16:49.100Z,14.50
2023-03-31T10:19:21.013Z,14.20
2023-03-31T10:21:56.663Z,13.10
2023-03-31T10:24:25.431Z,12.00
2023-03-31T10:26:56.121Z,11.80
2023-03-31T10:29:33.273Z,11.70
2023-03-31T10:32:06.198Z,11.80
2023-03-31T10:34:35.193Z,12.00
2023-03-31T10:37:07.262Z,12.20
2023-03-31T10:39:35.533Z,12.30
2023-03-31T10:42:03.957Z,12.40
2023-03-31T10:44:36.889Z,12.50
2023-03-31T10:47:07.213Z,12.40
2023-03-31T10:49:41.268Z,11.80
2023-03-31T10:52:18.994Z,11.20
2023-03-31T10:54:54.150Z,11.20
2023-03-31T10:57:41.195Z,11.40
2023-03-31T11:00:19.243Z,11.70
2023-03-31T11:03:03.629Z,12.10
2023-03-31T11:05:35.480Z,12.50
2023-03-31T11:08:26.212Z,12.90
2023-03-31T11:11:09.323Z,13.20
2023-03-31T11:13:42.386Z,13.40
2023-03-31T11:16:21.062Z,13.70
2023-03-31T11:18:59.960Z,13.90
2023-03-31T11:21:39.588Z,14.20
2023-03-31T11:24:18.147Z,14.30
2023-03-31T11:26:53.989Z,14.50
2023-03-31T11:29:33.395Z,14.60
2023-03-31T11:32:31.224Z,14.80
2023-03-31T11:35:14.535Z,14.80
2023-03-31T11:37:52.870Z,14.70
2023-03-31T11:40:34.718Z,14.70
2023-03-31T11:43:08.198Z,14.60
2023-03-31T11:45:41.112Z,14.50
2023-03-31T11:48:22.253Z,14.40
2023-03-31T11:50:53.704Z,14.40
2023-03-31T11:53:26.157Z,14.20
2023-03-31T11:55:57.877Z,14.20
2023-03-31T11:58:31.804Z,13.90
2023-03-31T12:01:06.548Z,13.60
2023-03-31T12:03:44.918Z,13.20
2023-03-31T12:06:18.947Z,13.10
2023-03-31T12:08:56.156Z,13.20
2023-03-31T12:11:33.244Z,13.10
2023-03-31T12:14:14.235Z,13.20
2023-03-31T12:16:47.005Z,13.10
2023-03-31T12:19:22.654Z,13.30
2023-03-31T12:21:54.106Z,13.40
2023-03-31T12:24:22.841Z,13.40
2023-03-31T12:27:03.593Z,13.60
2023-03-31T12:29:34.622Z,13.60
2023-03-31T12:32:05.926Z,13.70
2023-03-31T12:34:39.368Z,13.80
2023-03-31T12:37:31.515Z,13.90
2023-03-31T12:40:11.898Z,13.80
2023-03-31T12:43:19.801Z,13.90
2023-03-31T12:45:56.946Z,14.00
2023-03-31T12:48:59.853Z,14.20
2023-03-31T12:51:47.857Z,14.30
2023-03-31T12:54:31.949Z,14.70
2023-03-31T12:57:17.316Z,14.70
2023-03-31T12:59:47.335Z,14.90
2023-03-31T13:02:27.218Z,15.00
2023-03-31T13:04:55.426Z,15.20
2023-03-31T13:07:43.867Z,15.20
2023-03-31T13:10:30.439Z,15.40
2023-03-31T13:13:06.974Z,15.70
2023-03-31T13:15:35.081Z,15.80
2023-03-31T13:18:05.801Z,16.00
2023-03-31T13:20:38.475Z,16.10
2023-03-31T13:23:20.595Z,16.10
2023-03-31T13:25:53.005Z,16.10
2023-03-31T13:28:40.168Z,16.10
2023-03-31T13:31:10.495Z,16.10
2023-03-31T13:33:43.708Z,16.30
2023-03-31T13:36:58.544Z,16.50
2023-03-31T13:39:49.952Z,16.50
2023-03-31T13:42:58.777Z,16.30
2023-03-31T13:45:45.506Z,15.90
2023-03-31T13:48:29.386Z,15.90
2023-03-31T13:51:27.927Z,15.90
2023-03-31T13:54:31.755Z,15.80
2023-03-31T13:57:31.570Z,15.80
2023-03-31T14:00:30.872Z,15.40
2023-03-31T14:03:13.761Z,14.80
2023-03-31T14:05:46.947Z,14.50
2023-03-31T14:08:21.312Z,13.80
2023-03-31T14:10:49.558Z,13.10
2023-03-31T14:13:21.171Z,12.50
2023-03-31T14:15:53.060Z,11.90
2023-03-31T14:18:30.553Z,11.60
2023-03-31T14:21:09.242Z,11.50
2023-03-31T14:23:50.733Z,11.50
2023-03-31T14:26:31.712Z,11.50
2023-03-31T14:29:15.748Z,11.70
2023-03-31T14:31:50.738Z,11.80
2023-03-31T14:34:32.458Z,12.10
2023-03-31T14:37:03.311Z,12.30
2023-03-31T14:39:34.362Z,12.60
2023-03-31T14:42:07.261Z,12.60
2023-03-31T14:44:38.455Z,12.60
2023-03-31T14:47:10.109Z,12.70
2023-03-31T14:49:40.493Z,12.70
2023-03-31T14:52:17.864Z,12.50
2023-03-31T14:54:47.845Z,12.50
2023-03-31T14:57:21.878Z,12.40
2023-03-31T14:59:54.766Z,12.40
2023-03-31T15:02:33.636Z,12.30
2023-03-31T15:05:05.937Z,12.20
2023-03-31T15:07:34.509Z,12.20
2023-03-31T15:10:03.984Z,12.20
2023-03-31T15:12:33.056Z,12.20
2023-03-31T15:15:06.870Z,12.20
2023-03-31T15:17:42.854Z,12.20
2023-03-31T15:20:31.590Z,12.10
2023-03-31T15:23:01.465Z,12.10
2023-03-31T15:25:35.828Z,12.10
2023-03-31T15:28:07.756Z,12.10
2023-03-31T15:30:38.029Z,12.10
2023-03-31T15:33:18.887Z,12.10
2023-03-31T15:35:47.881Z,12.10
2023-03-31T15:38:18.370Z,11.90
2023-03-31T15:40:50.848Z,11.80
2023-03-31T15:43:26.766Z,11.60
2023-03-31T15:45:57.279Z,11.40
2023-03-31T15:48:33.520Z,11.30
2023-03-31T15:51:03.603Z,11.30
2023-03-31T15:53:39.087Z,11.20
2023-03-31T15:56:09.819Z,11.20
2023-03-31T15:58:56.061Z,11.20
2023-03-31T16:01:32.973Z,11.50
2023-03-31T16:04:02.544Z,11.20
2023-03-31T16:06:43.417Z,11.20
2023-03-31T16:09:15.303Z,11.20
2023-03-31T16:11:47.850Z,11.20
2023-03-31T16:14:21.955Z,11.20
2023-03-31T16:16:59.171Z,11.20
2023-03-31T16:19:30.521Z,11.20
2023-03-31T16:22:02.064Z,11.20
2023-03-31T16:24:32.473Z,11.10
2023-03-31T16:27:06.142Z,11.20
2023-03-31T16:29:35.076Z,11.20
2023-03-31T16:32:13.644Z,11.10
2023-03-31T16:34:57.115Z,11.10
2023-03-31T16:37:26.174Z,11.10
2023-03-31T16:39:54.708Z,11.20
2023-03-31T16:42:23.030Z,11.20
2023-03-31T16:45:09.472Z,11.10
2023-03-31T16:47:44.521Z,11.20
2023-03-31T16:50:15.297Z,11.10
2023-03-31T16:52:43.951Z,11.10
2023-03-31T16:55:12.333Z,11.10
2023-03-31T16:57:40.245Z,11.00
2023-03-31T17:00:10.536Z,11.00
2023-03-31T17:02:40.034Z,11.00
2023-03-31T17:05:13.158Z,10.90
2023-03-31T17:07:41.868Z,10.80
2023-03-31T17:10:10.773Z,10.80
2023-03-31T17:12:38.768Z,10.80
2023-03-31T17:15:08.130Z,10.70
2023-03-31T17:17:36.968Z,10.60
2023-03-31T17:20:08.044Z,10.50
2023-03-31T17:22:37.225Z,10.50
2023-03-31T17:25:05.897Z,10.40
2023-03-31T17:27:33.920Z,10.40
2023-03-31T17:32:36.821Z,10.20
2023-03-31T17:35:07.568Z,10.20
2023-03-31T17:37:35.908Z,10.20
2023-03-31T17:40:04.585Z,10.10
2023-03-31T17:42:33.065Z,10.10
2023-03-31T17:45:01.254Z,10.00
2023-03-31T17:47:32.248Z,10.10
2023-03-31T17:50:01.384Z,10.00
2023-03-31T17:52:33.620Z,10.00
2023-03-31T17:55:02.694Z,10.00
2023-03-31T17:57:32.314Z,10.00
2023-03-31T18:00:01.980Z,10.00
2023-03-31T18:02:30.295Z,10.00
2023-03-31T18:04:59.116Z,10.00
2023-03-31T18:07:27.249Z,9.90
2023-03-31T18:09:57.914Z,9.90
2023-03-31T18:12:28.530Z,9.90
2023-03-31T18:14:56.749Z,9.80
2023-03-31T18:17:24.761Z,9.90
2023-03-31T18:19:53.092Z,9.80
2023-03-31T18:22:21.679Z,9.90
2023-03-31T18:24:51.460Z,9.80
2023-03-31T18:27:24.605Z,9.80
2023-03-31T18:29:53.671Z,9.90
2023-03-31T18:32:22.857Z,10.00
2023-03-31T18:34:53.371Z,10.00
2023-03-31T18:37:21.696Z,10.00
2023-03-31T18:39:50.105Z,9.80
2023-03-31T18:42:20.479Z,9.80
2023-03-31T18:44:49.930Z,9.80
2023-03-31T18:47:19.464Z,9.70
2023-03-31T18:49:48.584Z,9.70
2023-03-31T18:52:16.706Z,9.70
2023-03-31T18:54:44.839Z,9.60
2023-03-31T18:57:13.197Z,9.70
2023-03-31T18:59:41.407Z,9.70
2023-03-31T19:02:12.070Z,9.60
2023-03-31T19:04:41.153Z,9.60
2023-03-31T19:07:09.875Z,9.60
2023-03-31T19:09:38.271Z,9.60
2023-03-31T19:12:06.752Z,9.70
2023-03-31T19:14:36.075Z,9.60
2023-03-31T19:17:04.172Z,9.60
2023-03-31T19:19:35.334Z,9.60
2023-03-31T19:22:05.060Z,9.50
2023-03-31T19:24:33.454Z,9.40
2023-03-31T19:27:01.631Z,9.40
2023-03-31T19:29:32.741Z,9.40
2023-03-31T19:32:01.028Z,9.40
2023-03-31T19:34:29.353Z,9.40
2023-03-31T19:36:59.217Z,9.50
2023-03-31T19:39:28.868Z,9.50
2023-03-31T19:41:58.115Z,9.40
2023-03-31T19:44:26.189Z,9.40
2023-03-31T19:46:54.462Z,9.40
2023-03-31T19:49:22.651Z,9.40
2023-03-31T19:51:50.817Z,9.40
2023-03-31T19:54:23.548Z,9.40
2023-03-31T19:56:58.790Z,9.40
2023-03-31T19:59:26.881Z,9.40
2023-03-31T20:04:29.240Z,9.40
2023-03-31T20:06:57.389Z,9.40
2023-03-31T20:09:27.700Z,9.40
2023-03-31T20:11:57.666Z,9.40
2023-03-31T20:14:26.890Z,9.40
2023-03-31T20:19:23.556Z,9.40
2023-03-31T20:21:56.121Z,9.40
2023-03-31T20:24:24.594Z,9.40
2023-03-31T20:26:55.926Z,9.40
2023-03-31T20:29:24.900Z,9.30
2023-03-31T20:31:53.578Z,9.40
2023-03-31T20:34:22.935Z,9.00
2023-03-31T20:36:52.300Z,9.20
2023-03-31T20:39:21.782Z,9.30
2023-03-31T20:41:51.192Z,9.20
2023-03-31T20:44:23.540Z,9.00
2023-03-31T20:46:52.472Z,9.20
2023-03-31T20:49:20.971Z,9.10
2023-03-31T20:51:52.749Z,9.10
2023-03-31T20:54:22.650Z,9.10
2023-03-31T20:56:51.855Z,9.20
2023-03-31T20:59:22.247Z,9.10
2023-03-31T21:01:50.682Z,9.10
2023-03-31T21:04:21.304Z,9.20
2023-03-31T21:06:50.604Z,9.20
2023-03-31T21:09:19.568Z,9.20
2023-03-31T21:11:47.731Z,9.20
2023-03-31T21:14:18.720Z,9.20
2023-03-31T21:16:51.373Z,9.30
2023-03-31T21:19:21.436Z,9.30
2023-03-31T21:21:50.065Z,9.30
2023-03-31T21:24:21.197Z,9.30
2023-03-31T21:26:50.698Z,9.40
2023-03-31T21:29:18.719Z,9.40
2023-03-31T21:31:48.317Z,9.20
2023-03-31T21:34:20.327Z,9.60
2023-03-31T21:36:50.081Z,9.60
2023-03-31T21:39:18.089Z,9.70
2023-03-31T21:41:46.657Z,9.80
2023-03-31T21:44:16.330Z,9.80
2023-03-31T21:46:46.169Z,9.80
2023-03-31T21:49:15.026Z,9.80
2023-03-31T21:51:45.853Z,9.80
2023-03-31T21:54:13.996Z,9.80
2023-03-31T21:56:42.366Z,9.90
2023-03-31T21:59:10.563Z,9.90
2023-03-31T22:01:38.573Z,9.90
2023-03-31T22:04:07.692Z,9.90
2023-03-31T22:06:37.484Z,10.00
2023-03-31T22:09:07.523Z,10.00
2023-03-31T22:11:36.105Z,10.00
2023-03-31T22:14:04.256Z,10.00
2023-03-31T22:16:34.721Z,10.00
2023-03-31T22:19:02.854Z,10.00
2023-03-31T22:21:30.871Z,10.10
2023-03-31T22:24:00.778Z,10.10
2023-03-31T22:26:31.783Z,10.10
2023-03-31T22:29:00.844Z,10.10
2023-03-31T22:31:29.461Z,10.10
2023-03-31T22:33:57.771Z,10.10
2023-03-31T22:36:25.776Z,10.10
2023-03-31T22:38:54.191Z,10.10
2023-03-31T22:41:22.473Z,10.10
2023-03-31T22:43:52.814Z,10.10
2023-03-31T22:46:20.853Z,10.10
2023-03-31T22:48:50.408Z,10.20
2023-03-31T22:51:18.344Z,10.20
2023-03-31T22:53:51.214Z,10.20
2023-03-31T22:56:21.367Z,10.30
2023-03-31T22:58:49.815Z,10.30
2023-03-31T23:03:49.870Z,10.40
2023-03-31T23:06:18.744Z,10.40
2023-03-31T23:08:48.957Z,10.50
2023-03-31T23:11:19.259Z,10.50
2023-03-31T23:13:47.849Z,10.50
2023-03-31T23:16:21.048Z,10.50
2023-03-31T23:18:51.964Z,10.50
2023-03-31T23:21:22.728Z,10.60
2023-03-31T23:23:53.791Z,10.60
2023-03-31T23:26:22.486Z,10.60
2023-03-31T23:28:53.094Z,10.60
2023-03-31T23:31:27.879Z,10.60
2023-03-31T23:33:56.702Z,10.60
2023-03-31T23:36:26.629Z,10.60
2023-03-31T23:38:56.361Z,10.60
2023-03-31T23:41:26.643Z,10.60
2023-03-31T23:43:55.895Z,10.60
2023-03-31T23:46:26.211Z,10.60
2023-03-31T23:48:55.701Z,10.60
2023-03-31T23:51:24.254Z,10.60
2023-03-31T23:53:52.539Z,10.60
2023-03-31T23:56:21.046Z,10.70
2023-03-31T23:58:49.292Z,10.50
